createdAt,value
2023-01-19T00:03:40.806Z,101275.66
2023-01-19T00:08:46.075Z,101271.28
2023-01-19T00:13:51.105Z,101283.38
2023-01-19T00:18:55.764Z,101273.91
2023-01-19T00:23:58.878Z,101285.31
2023-01-19T00:29:02.017Z,101284.44
2023-01-19T00:34:07.844Z,101280.91
2023-01-19T00:39:11.020Z,101294.84
2023-01-19T00:44:14.264Z,101293.13
2023-01-19T00:49:18.846Z,101287.88
2023-01-19T00:54:22.003Z,101300.00
2023-01-19T00:59:25.877Z,101299.22
2023-01-19T01:04:30.425Z,101293.06
2023-01-19T01:09:33.604Z,101297.38
2023-01-19T01:14:36.927Z,101287.81
2023-01-19T01:19:41.679Z,101283.44
2023-01-19T01:24:44.957Z,101286.97
2023-01-19T01:29:48.224Z,101292.31
2023-01-19T01:34:52.773Z,101284.53
2023-01-19T01:39:55.920Z,101303.75
2023-01-19T01:45:00.972Z,101302.88
2023-01-19T01:50:10.133Z,101318.53
2023-01-19T01:55:14.679Z,101310.66
2023-01-19T02:00:18.780Z,101300.16
2023-01-19T02:05:27.334Z,101306.28
2023-01-19T02:10:47.829Z,101308.00
2023-01-19T02:15:52.920Z,101315.81
2023-01-19T02:21:05.605Z,101321.84
2023-01-19T02:26:12.703Z,101316.75
2023-01-19T02:31:16.386Z,101330.78
2023-01-19T02:36:23.997Z,101338.59
2023-01-19T02:41:32.308Z,101336.88
2023-01-19T02:46:35.869Z,101342.00
2023-01-19T02:51:39.131Z,101349.00
2023-01-19T02:57:18.517Z,101352.41
2023-01-19T03:02:36.042Z,101352.50
2023-01-19T03:07:50.550Z,101341.16
2023-01-19T03:13:03.506Z,101344.59
2023-01-19T03:18:11.989Z,101346.50
2023-01-19T03:23:16.991Z,101342.97
2023-01-19T03:28:24.246Z,101349.13
2023-01-19T03:33:34.295Z,101344.78
2023-01-19T03:38:39.607Z,101334.22
2023-01-19T03:43:42.705Z,101322.97
2023-01-19T03:48:48.584Z,101331.66
2023-01-19T03:53:51.801Z,101327.25
2023-01-19T03:58:56.266Z,101326.38
2023-01-19T04:04:01.574Z,101323.84
2023-01-19T04:09:04.729Z,101326.41
2023-01-19T04:14:07.840Z,101328.13
2023-01-19T04:19:12.458Z,101321.19
2023-01-19T04:24:15.563Z,101308.94
2023-01-19T04:29:18.716Z,101315.97
2023-01-19T04:34:23.253Z,101304.63
2023-01-19T04:39:26.590Z,101312.47
2023-01-19T04:44:29.817Z,101310.66
2023-01-19T04:49:34.352Z,101307.19
2023-01-19T04:54:37.553Z,101304.53
2023-01-19T04:59:40.674Z,101304.56
2023-01-19T05:04:45.341Z,101306.31
2023-01-19T05:09:48.463Z,101287.22
2023-01-19T05:14:51.629Z,101293.28
2023-01-19T05:19:56.191Z,101278.50
2023-01-19T05:24:59.363Z,101281.94
2023-01-19T05:30:04.845Z,101282.84
2023-01-19T05:35:10.889Z,101284.56
2023-01-19T05:40:14.332Z,101287.09
2023-01-19T05:45:17.583Z,101303.59
2023-01-19T05:50:22.147Z,101298.38
2023-01-19T05:55:25.271Z,101308.03
2023-01-19T06:00:29.267Z,101307.13
2023-01-19T06:05:34.135Z,101301.94
2023-01-19T06:10:37.399Z,101295.03
2023-01-19T06:15:40.563Z,101306.34
2023-01-19T06:20:45.109Z,101290.69
2023-01-19T06:25:50.282Z,101289.88
2023-01-19T06:30:55.067Z,101299.38
2023-01-19T06:35:59.655Z,101296.81
2023-01-19T06:41:04.072Z,101301.16
2023-01-19T06:46:07.438Z,101314.25
2023-01-19T06:51:12.018Z,101316.78
2023-01-19T06:56:15.330Z,101326.31
2023-01-19T07:01:18.756Z,101327.19
2023-01-19T07:06:23.366Z,101325.47
2023-01-19T07:11:31.904Z,101328.97
2023-01-19T07:16:36.260Z,101321.13
2023-01-19T07:21:40.843Z,101319.41
2023-01-19T07:26:44.085Z,101307.25
2023-01-19T07:31:48.998Z,101303.72
2023-01-19T07:36:53.646Z,101298.56
2023-01-19T07:41:56.767Z,101303.75
2023-01-19T07:47:00.302Z,101305.53
2023-01-19T07:52:04.873Z,101298.50
2023-01-19T07:57:07.992Z,101289.78
2023-01-19T08:02:11.802Z,101281.91
2023-01-19T08:07:16.545Z,101284.50
2023-01-19T08:12:19.745Z,101289.72
2023-01-19T08:17:22.875Z,101293.19
2023-01-19T08:22:27.439Z,101295.81
2023-01-19T08:27:31.399Z,101290.53
2023-01-19T08:32:34.555Z,101297.44
2023-01-19T08:37:39.112Z,101297.47
2023-01-19T08:42:42.205Z,101303.53
2023-01-19T08:47:45.548Z,101300.84
2023-01-19T08:52:50.085Z,101293.84
2023-01-19T08:57:54.061Z,101299.16
2023-01-19T09:02:57.440Z,101311.28
2023-01-19T09:08:02.986Z,101309.47
2023-01-19T09:13:08.656Z,101313.84
2023-01-19T09:18:13.863Z,101311.22
2023-01-19T09:23:20.344Z,101304.19
2023-01-19T09:28:23.808Z,101317.22
2023-01-19T09:33:27.330Z,101319.84
2023-01-19T09:38:33.217Z,101320.56
2023-01-19T09:43:42.831Z,101313.59
2023-01-19T09:48:48.832Z,101285.69
2023-01-19T09:53:59.076Z,101286.53
2023-01-19T09:59:04.833Z,101272.34
2023-01-19T10:04:30.492Z,101282.44
2023-01-19T10:09:37.276Z,101285.72
2023-01-19T10:14:46.660Z,101268.03
2023-01-19T10:19:55.541Z,101262.84
2023-01-19T10:25:06.053Z,101251.41
2023-01-19T10:30:16.672Z,101267.97
2023-01-19T10:35:24.651Z,101272.47
2023-01-19T10:40:36.780Z,101270.78
2023-01-19T10:45:39.995Z,101269.84
2023-01-19T10:50:43.685Z,101261.59
2023-01-19T10:55:48.322Z,101262.38
2023-01-19T11:00:51.566Z,101268.38
2023-01-19T11:05:54.745Z,101262.97
2023-01-19T11:11:04.450Z,101264.66
2023-01-19T11:16:16.072Z,101252.44
2023-01-19T11:21:26.000Z,101245.56
2023-01-19T11:26:34.138Z,101221.84
2023-01-19T11:31:37.564Z,101210.16
2023-01-19T11:36:40.701Z,101202.81
2023-01-19T11:41:49.667Z,101195.28
2023-01-19T11:46:57.524Z,101186.84
2023-01-19T11:52:05.537Z,101180.16
2023-01-19T11:57:15.170Z,101167.47
2023-01-19T12:02:25.974Z,101147.09
2023-01-19T12:07:35.073Z,101143.44
2023-01-19T12:12:41.070Z,101114.56
2023-01-19T12:17:48.786Z,101108.09
2023-01-19T12:22:59.708Z,101100.34
2023-01-19T12:28:05.055Z,101095.41
2023-01-19T12:33:34.627Z,101089.31
2023-01-19T12:38:44.362Z,101081.81
2023-01-19T12:43:49.403Z,101057.59
2023-01-19T12:48:53.627Z,101058.97
2023-01-19T12:53:59.825Z,101045.88
2023-01-19T12:59:06.289Z,101031.91
2023-01-19T13:04:33.105Z,101032.41
2023-01-19T13:09:38.314Z,101012.88
2023-01-19T13:14:44.642Z,101003.34
2023-01-19T13:19:55.124Z,100991.25
2023-01-19T13:25:11.663Z,100973.72
2023-01-19T13:30:20.964Z,100983.25
2023-01-19T13:35:25.051Z,100974.44
2023-01-19T13:40:37.017Z,100971.47
2023-01-19T13:45:42.282Z,100959.00
2023-01-19T13:50:58.533Z,100943.25
2023-01-19T13:56:10.095Z,100946.50
2023-01-19T14:01:26.134Z,100942.09
2023-01-19T14:06:35.982Z,100951.06
2023-01-19T14:11:39.868Z,100960.56
2023-01-19T14:16:44.441Z,100940.94
2023-01-19T14:21:47.574Z,100916.19
2023-01-19T14:26:52.845Z,100902.94
2023-01-19T14:32:15.564Z,100900.22
2023-01-19T14:37:24.782Z,100900.22
2023-01-19T14:42:30.591Z,100876.63
2023-01-19T14:47:40.883Z,100870.09
2023-01-19T14:52:49.970Z,100868.09
2023-01-19T14:57:53.092Z,100852.91
2023-01-19T15:02:57.627Z,100849.66
2023-01-19T15:08:03.138Z,100826.97
2023-01-19T15:13:06.315Z,100818.75
2023-01-19T15:18:17.467Z,100829.22
2023-01-19T15:23:20.614Z,100821.91
2023-01-19T15:28:23.768Z,100820.25
2023-01-19T15:33:30.674Z,100821.84
2023-01-19T15:38:33.783Z,100812.81
2023-01-19T15:43:36.923Z,100807.66
2023-01-19T15:48:41.482Z,100813.69
2023-01-19T15:53:45.602Z,100803.97
2023-01-19T15:58:49.088Z,100808.19
2023-01-19T16:03:53.652Z,100802.22
2023-01-19T16:09:01.123Z,100793.50
2023-01-19T16:14:04.440Z,100795.00
2023-01-19T16:19:08.975Z,100788.38
2023-01-19T16:24:12.131Z,100775.22
2023-01-19T16:29:15.307Z,100779.78
2023-01-19T16:34:19.853Z,100784.81
2023-01-19T16:39:23.049Z,100784.09
2023-01-19T16:44:26.266Z,100787.31
2023-01-19T16:49:30.911Z,100796.09
2023-01-19T16:54:34.406Z,100804.03
2023-01-19T16:59:39.556Z,100810.06
2023-01-19T17:04:44.140Z,100794.41
2023-01-19T17:09:47.287Z,100794.25
2023-01-19T17:14:50.414Z,100799.44
2023-01-19T17:19:54.956Z,100796.63
2023-01-19T17:24:58.063Z,100798.44
2023-01-19T17:30:01.215Z,100811.38
2023-01-19T17:35:06.433Z,100809.63
2023-01-19T17:40:11.395Z,100797.31
2023-01-19T17:45:14.810Z,100802.38
2023-01-19T17:50:19.529Z,100813.75
2023-01-19T17:55:22.643Z,100810.69
2023-01-19T18:00:25.924Z,100809.91
2023-01-19T18:05:30.540Z,100815.75
2023-01-19T18:10:33.702Z,100815.63
2023-01-19T18:15:36.840Z,100828.25
2023-01-19T18:20:43.150Z,100828.06
2023-01-19T18:25:46.308Z,100826.38
2023-01-19T18:30:49.490Z,100825.50
2023-01-19T18:35:54.088Z,100838.69
2023-01-19T18:41:05.090Z,100836.75
2023-01-19T18:46:08.770Z,100844.16
2023-01-19T18:51:15.513Z,100845.88
2023-01-19T18:56:18.687Z,100850.34
2023-01-19T19:01:24.371Z,100847.09
2023-01-19T19:06:29.254Z,100846.22
2023-01-19T19:11:32.554Z,100849.72
2023-01-19T19:16:38.583Z,100846.34
2023-01-19T19:21:44.758Z,100844.38
2023-01-19T19:26:47.914Z,100844.16
2023-01-19T19:31:51.197Z,100842.44
2023-01-19T19:36:55.742Z,100832.75
2023-01-19T19:41:58.885Z,100833.72
2023-01-19T19:47:02.133Z,100839.88
2023-01-19T19:52:06.772Z,100843.25
2023-01-19T19:57:10.136Z,100832.53
2023-01-19T20:02:13.835Z,100829.56
2023-01-19T20:07:18.438Z,100831.31
2023-01-19T20:12:21.712Z,100820.81
2023-01-19T20:17:24.951Z,100825.28
2023-01-19T20:22:29.552Z,100830.63
2023-01-19T20:27:32.829Z,100824.53
2023-01-19T20:32:36.040Z,100816.63
2023-01-19T20:37:40.699Z,100820.06
2023-01-19T20:42:44.665Z,100813.84
2023-01-19T20:47:47.942Z,100824.22
2023-01-19T20:52:52.601Z,100815.28
2023-01-19T20:57:55.852Z,100820.63
2023-01-19T21:02:59.504Z,100816.97
2023-01-19T21:08:06.077Z,100830.06
2023-01-19T21:13:09.346Z,100835.38
2023-01-19T21:18:12.587Z,100835.31
2023-01-19T21:23:19.213Z,100833.34
2023-01-19T21:28:23.168Z,100831.59
2023-01-19T21:33:26.507Z,100829.84
2023-01-19T21:38:31.181Z,100840.50
2023-01-19T21:43:36.495Z,100829.84
2023-01-19T21:48:39.744Z,100837.63
2023-01-19T21:53:44.672Z,100830.63
2023-01-19T21:58:47.996Z,100847.22
2023-01-19T22:03:55.114Z,100845.22
2023-01-19T22:09:00.961Z,100848.81
2023-01-19T22:14:04.209Z,100850.53
2023-01-19T22:19:08.441Z,100855.63
2023-01-19T22:24:13.275Z,100857.47
2023-01-19T22:29:16.535Z,100847.91
2023-01-19T22:34:19.790Z,100859.50
2023-01-19T22:39:24.498Z,100850.66
2023-01-19T22:44:27.765Z,100854.34
2023-01-19T22:49:31.235Z,100853.06
2023-01-19T22:54:36.031Z,100869.34
2023-01-19T22:59:39.301Z,100849.97
2023-01-19T23:04:42.556Z,100849.03
2023-01-19T23:09:47.172Z,100844.69
2023-01-19T23:14:50.437Z,100844.72
2023-01-19T23:19:53.712Z,100831.03
2023-01-19T23:24:58.301Z,100840.78
2023-01-19T23:30:01.566Z,100840.22
2023-01-19T23:35:05.422Z,100847.34
2023-01-19T23:40:11.482Z,100850.59
2023-01-19T23:45:15.030Z,100853.16
2023-01-19T23:50:19.661Z,100861.69
2023-01-19T23:55:24.304Z,100859.09
